sensor_id;sensor_type;location;lat;lon;timestamp;P1;durP1;ratioP1;P2;durP2;ratioP2
41514;SDS011;27247;48.020;16.720;2024-03-02T00:01:05;133.07;;;60.55;;
41514;SDS011;27247;48.020;16.720;2024-03-02T00:09:31;126.55;;;59.67;;
41514;SDS011;27247;48.020;16.720;2024-03-02T00:13:41;128.83;;;59.50;;
41514;SDS011;27247;48.020;16.720;2024-03-02T00:17:54;133.70;;;60.60;;
41514;SDS011;27247;48.020;16.720;2024-03-02T00:22:05;124.15;;;58.03;;
41514;SDS011;27247;48.020;16.720;2024-03-02T00:26:17;138.35;;;61.80;;
41514;SDS011;27247;48.020;16.720;2024-03-02T00:34:46;131.82;;;60.50;;
41514;SDS011;27247;48.020;16.720;2024-03-02T00:38:57;136.20;;;61.65;;
41514;SDS011;27247;48.020;16.720;2024-03-02T00:43:41;136.80;;;61.50;;
41514;SDS011;27247;48.020;16.720;2024-03-02T00:47:50;134.63;;;60.35;;
41514;SDS011;27247;48.020;16.720;2024-03-02T00:52:01;149.93;;;60.58;;
41514;SDS011;27247;48.020;16.720;2024-03-02T00:56:11;138.30;;;59.90;;
41514;SDS011;27247;48.020;16.720;2024-03-02T01:00:22;135.18;;;61.30;;
41514;SDS011;27247;48.020;16.720;2024-03-02T01:04:32;142.53;;;61.97;;
41514;SDS011;27247;48.020;16.720;2024-03-02T01:08:42;136.02;;;58.20;;
41514;SDS011;27247;48.020;16.720;2024-03-02T01:12:53;127.30;;;58.28;;
41514;SDS011;27247;48.020;16.720;2024-03-02T01:17:06;132.15;;;56.63;;
41514;SDS011;27247;48.020;16.720;2024-03-02T01:21:17;134.13;;;57.50;;
41514;SDS011;27247;48.020;16.720;2024-03-02T01:25:27;134.00;;;59.45;;
41514;SDS011;27247;48.020;16.720;2024-03-02T01:29:37;130.82;;;60.08;;
41514;SDS011;27247;48.020;16.720;2024-03-02T01:33:48;131.20;;;56.17;;
41514;SDS011;27247;48.020;16.720;2024-03-02T01:37:58;134.10;;;54.60;;
41514;SDS011;27247;48.020;16.720;2024-03-02T01:42:08;135.05;;;57.70;;
41514;SDS011;27247;48.020;16.720;2024-03-02T01:46:20;140.82;;;58.60;;
41514;SDS011;27247;48.020;16.720;2024-03-02T01:50:31;140.27;;;56.60;;
41514;SDS011;27247;48.020;16.720;2024-03-02T01:54:43;136.13;;;58.63;;
41514;SDS011;27247;48.020;16.720;2024-03-02T01:58:54;133.60;;;57.95;;
41514;SDS011;27247;48.020;16.720;2024-03-02T02:03:04;146.35;;;60.47;;
41514;SDS011;27247;48.020;16.720;2024-03-02T02:07:15;140.07;;;58.30;;
41514;SDS011;27247;48.020;16.720;2024-03-02T02:11:25;142.57;;;55.40;;
41514;SDS011;27247;48.020;16.720;2024-03-02T02:15:35;134.40;;;57.58;;
41514;SDS011;27247;48.020;16.720;2024-03-02T02:19:46;143.57;;;58.05;;
41514;SDS011;27247;48.020;16.720;2024-03-02T02:23:56;146.27;;;57.90;;
41514;SDS011;27247;48.020;16.720;2024-03-02T02:28:07;139.73;;;58.63;;
41514;SDS011;27247;48.020;16.720;2024-03-02T02:32:17;136.70;;;57.13;;
41514;SDS011;27247;48.020;16.720;2024-03-02T02:36:27;142.10;;;58.35;;
41514;SDS011;27247;48.020;16.720;2024-03-02T02:40:38;136.93;;;57.20;;
41514;SDS011;27247;48.020;16.720;2024-03-02T02:44:48;130.57;;;55.70;;
41514;SDS011;27247;48.020;16.720;2024-03-02T02:48:58;136.50;;;54.27;;
41514;SDS011;27247;48.020;16.720;2024-03-02T02:53:09;140.57;;;53.47;;
41514;SDS011;27247;48.020;16.720;2024-03-02T02:57:19;135.93;;;54.50;;
41514;SDS011;27247;48.020;16.720;2024-03-02T03:01:30;147.33;;;58.33;;
41514;SDS011;27247;48.020;16.720;2024-03-02T03:05:40;145.37;;;57.43;;
41514;SDS011;27247;48.020;16.720;2024-03-02T03:09:50;161.30;;;59.73;;
41514;SDS011;27247;48.020;16.720;2024-03-02T03:14:01;162.00;;;58.10;;
41514;SDS011;27247;48.020;16.720;2024-03-02T03:18:11;158.30;;;59.90;;
41514;SDS011;27247;48.020;16.720;2024-03-02T03:22:21;153.70;;;59.57;;
41514;SDS011;27247;48.020;16.720;2024-03-02T03:26:32;136.65;;;57.17;;
41514;SDS011;27247;48.020;16.720;2024-03-02T03:30:45;153.02;;;58.80;;
41514;SDS011;27247;48.020;16.720;2024-03-02T03:34:55;153.97;;;58.67;;
41514;SDS011;27247;48.020;16.720;2024-03-02T03:39:05;142.73;;;56.87;;
41514;SDS011;27247;48.020;16.720;2024-03-02T03:43:16;137.43;;;54.95;;
41514;SDS011;27247;48.020;16.720;2024-03-02T03:47:26;152.18;;;58.13;;
41514;SDS011;27247;48.020;16.720;2024-03-02T03:51:37;144.65;;;57.28;;
41514;SDS011;27247;48.020;16.720;2024-03-02T03:55:47;150.33;;;56.73;;
41514;SDS011;27247;48.020;16.720;2024-03-02T03:59:59;102.30;;;46.30;;
41514;SDS011;27247;48.020;16.720;2024-03-02T04:04:10;102.43;;;47.92;;
41514;SDS011;27247;48.020;16.720;2024-03-02T04:08:20;123.47;;;49.60;;
41514;SDS011;27247;48.020;16.720;2024-03-02T04:12:31;128.13;;;52.27;;
41514;SDS011;27247;48.020;16.720;2024-03-02T04:16:41;112.93;;;48.37;;
41514;SDS011;27247;48.020;16.720;2024-03-02T04:20:51;110.47;;;47.80;;
41514;SDS011;27247;48.020;16.720;2024-03-02T04:25:01;112.00;;;48.97;;
41514;SDS011;27247;48.020;16.720;2024-03-02T04:29:14;109.65;;;48.90;;
41514;SDS011;27247;48.020;16.720;2024-03-02T04:33:24;103.37;;;48.23;;
41514;SDS011;27247;48.020;16.720;2024-03-02T04:37:35;92.50;;;45.33;;
41514;SDS011;27247;48.020;16.720;2024-03-02T04:41:45;100.97;;;45.75;;
41514;SDS011;27247;48.020;16.720;2024-03-02T04:45:56;101.55;;;43.65;;
41514;SDS011;27247;48.020;16.720;2024-03-02T04:50:06;100.47;;;44.40;;
41514;SDS011;27247;48.020;16.720;2024-03-02T04:54:17;92.85;;;44.67;;
41514;SDS011;27247;48.020;16.720;2024-03-02T04:58:28;102.13;;;46.75;;
41514;SDS011;27247;48.020;16.720;2024-03-02T05:02:38;99.37;;;46.13;;
41514;SDS011;27247;48.020;16.720;2024-03-02T05:06:48;102.32;;;45.45;;
41514;SDS011;27247;48.020;16.720;2024-03-02T05:11:02;104.40;;;46.88;;
41514;SDS011;27247;48.020;16.720;2024-03-02T05:15:31;120.82;;;50.05;;
41514;SDS011;27247;48.020;16.720;2024-03-02T05:19:41;108.38;;;49.10;;
41514;SDS011;27247;48.020;16.720;2024-03-02T05:23:52;123.83;;;51.47;;
41514;SDS011;27247;48.020;16.720;2024-03-02T05:28:02;127.95;;;50.80;;
41514;SDS011;27247;48.020;16.720;2024-03-02T05:32:13;137.07;;;51.40;;
41514;SDS011;27247;48.020;16.720;2024-03-02T05:36:23;158.23;;;55.20;;
41514;SDS011;27247;48.020;16.720;2024-03-02T05:40:33;139.67;;;54.70;;
41514;SDS011;27247;48.020;16.720;2024-03-02T05:44:43;161.87;;;56.00;;
41514;SDS011;27247;48.020;16.720;2024-03-02T05:48:54;140.10;;;52.83;;
41514;SDS011;27247;48.020;16.720;2024-03-02T05:53:04;176.80;;;51.63;;
41514;SDS011;27247;48.020;16.720;2024-03-02T05:57:14;138.17;;;50.10;;
41514;SDS011;27247;48.020;16.720;2024-03-02T06:01:44;126.82;;;50.08;;
41514;SDS011;27247;48.020;16.720;2024-03-02T06:05:56;136.95;;;49.47;;
41514;SDS011;27247;48.020;16.720;2024-03-02T06:10:06;138.87;;;51.20;;
41514;SDS011;27247;48.020;16.720;2024-03-02T06:14:18;137.75;;;50.95;;
41514;SDS011;27247;48.020;16.720;2024-03-02T06:18:29;138.17;;;51.47;;
41514;SDS011;27247;48.020;16.720;2024-03-02T06:22:39;136.37;;;50.73;;
41514;SDS011;27247;48.020;16.720;2024-03-02T06:26:49;138.48;;;53.10;;
41514;SDS011;27247;48.020;16.720;2024-03-02T06:31:00;141.63;;;52.27;;
41514;SDS011;27247;48.020;16.720;2024-03-02T06:35:11;139.00;;;50.83;;
41514;SDS011;27247;48.020;16.720;2024-03-02T06:39:22;124.65;;;49.03;;
41514;SDS011;27247;48.020;16.720;2024-03-02T06:43:32;129.67;;;49.67;;
41514;SDS011;27247;48.020;16.720;2024-03-02T06:47:43;146.93;;;51.77;;
41514;SDS011;27247;48.020;16.720;2024-03-02T06:51:53;152.33;;;52.67;;
41514;SDS011;27247;48.020;16.720;2024-03-02T06:56:03;135.13;;;49.10;;
41514;SDS011;27247;48.020;16.720;2024-03-02T07:00:14;135.20;;;52.47;;
41514;SDS011;27247;48.020;16.720;2024-03-02T07:04:25;134.95;;;51.30;;
41514;SDS011;27247;48.020;16.720;2024-03-02T07:08:36;135.30;;;50.63;;
41514;SDS011;27247;48.020;16.720;2024-03-02T07:12:46;138.05;;;48.00;;
41514;SDS011;27247;48.020;16.720;2024-03-02T07:16:56;141.00;;;52.90;;
41514;SDS011;27247;48.020;16.720;2024-03-02T07:21:07;142.07;;;53.00;;
41514;SDS011;27247;48.020;16.720;2024-03-02T07:25:17;131.18;;;51.22;;
41514;SDS011;27247;48.020;16.720;2024-03-02T07:29:27;139.33;;;53.27;;
41514;SDS011;27247;48.020;16.720;2024-03-02T07:33:38;142.53;;;52.30;;
41514;SDS011;27247;48.020;16.720;2024-03-02T07:37:48;152.50;;;53.97;;
41514;SDS011;27247;48.020;16.720;2024-03-02T07:41:59;154.45;;;54.40;;
41514;SDS011;27247;48.020;16.720;2024-03-02T07:46:10;165.38;;;56.15;;
41514;SDS011;27247;48.020;16.720;2024-03-02T07:50:20;149.60;;;54.35;;
41514;SDS011;27247;48.020;16.720;2024-03-02T07:54:31;154.80;;;57.23;;
41514;SDS011;27247;48.020;16.720;2024-03-02T07:58:41;144.00;;;54.43;;
41514;SDS011;27247;48.020;16.720;2024-03-02T08:02:52;139.82;;;54.20;;
41514;SDS011;27247;48.020;16.720;2024-03-02T08:07:02;141.73;;;55.80;;
41514;SDS011;27247;48.020;16.720;2024-03-02T08:11:13;152.30;;;59.30;;
41514;SDS011;27247;48.020;16.720;2024-03-02T08:15:23;159.83;;;61.07;;
41514;SDS011;27247;48.020;16.720;2024-03-02T08:19:34;151.87;;;60.03;;
41514;SDS011;27247;48.020;16.720;2024-03-02T08:23:44;161.97;;;60.03;;
41514;SDS011;27247;48.020;16.720;2024-03-02T08:27:54;152.00;;;58.30;;
41514;SDS011;27247;48.020;16.720;2024-03-02T08:32:05;153.30;;;61.33;;
41514;SDS011;27247;48.020;16.720;2024-03-02T08:36:16;144.35;;;56.35;;
41514;SDS011;27247;48.020;16.720;2024-03-02T08:40:27;155.80;;;60.63;;
41514;SDS011;27247;48.020;16.720;2024-03-02T08:44:37;157.35;;;59.05;;
41514;SDS011;27247;48.020;16.720;2024-03-02T08:48:48;155.50;;;59.92;;
41514;SDS011;27247;48.020;16.720;2024-03-02T08:52:58;143.20;;;57.07;;
41514;SDS011;27247;48.020;16.720;2024-03-02T08:57:08;148.00;;;59.57;;
41514;SDS011;27247;48.020;16.720;2024-03-02T09:01:19;145.23;;;57.60;;
41514;SDS011;27247;48.020;16.720;2024-03-02T09:05:29;129.00;;;52.72;;
41514;SDS011;27247;48.020;16.720;2024-03-02T09:09:39;158.10;;;57.30;;
41514;SDS011;27247;48.020;16.720;2024-03-02T09:13:50;132.07;;;53.00;;
41514;SDS011;27247;48.020;16.720;2024-03-02T09:18:00;127.68;;;54.95;;
41514;SDS011;27247;48.020;16.720;2024-03-02T09:22:10;122.37;;;53.73;;
41514;SDS011;27247;48.020;16.720;2024-03-02T09:26:21;118.57;;;53.73;;
41514;SDS011;27247;48.020;16.720;2024-03-02T09:30:32;116.70;;;51.38;;
41514;SDS011;27247;48.020;16.720;2024-03-02T09:34:43;113.00;;;50.83;;
41514;SDS011;27247;48.020;16.720;2024-03-02T09:38:53;105.50;;;48.35;;
41514;SDS011;27247;48.020;16.720;2024-03-02T09:43:03;108.73;;;50.27;;
41514;SDS011;27247;48.020;16.720;2024-03-02T09:47:15;112.50;;;49.05;;
41514;SDS011;27247;48.020;16.720;2024-03-02T09:51:25;109.45;;;50.08;;
41514;SDS011;27247;48.020;16.720;2024-03-02T09:55:36;96.78;;;46.20;;
41514;SDS011;27247;48.020;16.720;2024-03-02T09:59:46;104.13;;;48.67;;
41514;SDS011;27247;48.020;16.720;2024-03-02T10:04:00;96.47;;;44.43;;
41514;SDS011;27247;48.020;16.720;2024-03-02T10:08:10;104.63;;;50.78;;
41514;SDS011;27247;48.020;16.720;2024-03-02T10:12:21;105.90;;;50.17;;
41514;SDS011;27247;48.020;16.720;2024-03-02T10:16:32;104.05;;;48.70;;
41514;SDS011;27247;48.020;16.720;2024-03-02T10:20:42;108.83;;;50.20;;
41514;SDS011;27247;48.020;16.720;2024-03-02T10:24:53;104.13;;;49.78;;
41514;SDS011;27247;48.020;16.720;2024-03-02T10:29:03;100.00;;;49.47;;
41514;SDS011;27247;48.020;16.720;2024-03-02T10:33:13;103.67;;;50.80;;
41514;SDS011;27247;48.020;16.720;2024-03-02T10:37:24;104.50;;;49.43;;
41514;SDS011;27247;48.020;16.720;2024-03-02T10:41:35;114.68;;;51.97;;
41514;SDS011;27247;48.020;16.720;2024-03-02T10:45:47;114.25;;;52.58;;
41514;SDS011;27247;48.020;16.720;2024-03-02T10:49:59;112.60;;;51.20;;
41514;SDS011;27247;48.020;16.720;2024-03-02T10:54:11;112.63;;;51.75;;
41514;SDS011;27247;48.020;16.720;2024-03-02T10:58:22;111.45;;;51.03;;
41514;SDS011;27247;48.020;16.720;2024-03-02T11:02:36;108.00;;;52.85;;
41514;SDS011;27247;48.020;16.720;2024-03-02T11:06:49;114.97;;;51.72;;
41514;SDS011;27247;48.020;16.720;2024-03-02T11:11:04;114.95;;;53.72;;
41514;SDS011;27247;48.020;16.720;2024-03-02T11:15:17;125.65;;;55.92;;
41514;SDS011;27247;48.020;16.720;2024-03-02T11:19:29;116.45;;;56.75;;
41514;SDS011;27247;48.020;16.720;2024-03-02T11:23:41;111.90;;;53.42;;
41514;SDS011;27247;48.020;16.720;2024-03-02T11:32:25;108.38;;;52.25;;
41514;SDS011;27247;48.020;16.720;2024-03-02T11:36:35;100.55;;;52.45;;
41514;SDS011;27247;48.020;16.720;2024-03-02T11:40:45;102.15;;;51.92;;
41514;SDS011;27247;48.020;16.720;2024-03-02T11:44:55;100.40;;;52.10;;
41514;SDS011;27247;48.020;16.720;2024-03-02T11:49:06;102.00;;;52.03;;
41514;SDS011;27247;48.020;16.720;2024-03-02T11:53:17;100.57;;;50.90;;
41514;SDS011;27247;48.020;16.720;2024-03-02T11:57:28;95.15;;;48.58;;
41514;SDS011;27247;48.020;16.720;2024-03-02T12:01:41;89.00;;;47.47;;
41514;SDS011;27247;48.020;16.720;2024-03-02T12:05:54;82.32;;;44.22;;
41514;SDS011;27247;48.020;16.720;2024-03-02T12:10:05;85.40;;;42.90;;
41514;SDS011;27247;48.020;16.720;2024-03-02T12:14:15;82.15;;;42.72;;
41514;SDS011;27247;48.020;16.720;2024-03-02T12:18:25;80.45;;;40.85;;
41514;SDS011;27247;48.020;16.720;2024-03-02T12:22:36;77.82;;;41.90;;
41514;SDS011;27247;48.020;16.720;2024-03-02T12:26:46;74.82;;;41.65;;
41514;SDS011;27247;48.020;16.720;2024-03-02T12:30:58;78.45;;;40.55;;
41514;SDS011;27247;48.020;16.720;2024-03-02T12:35:09;68.00;;;37.30;;
41514;SDS011;27247;48.020;16.720;2024-03-02T12:39:24;68.78;;;36.28;;
41514;SDS011;27247;48.020;16.720;2024-03-02T12:43:35;69.25;;;36.55;;
41514;SDS011;27247;48.020;16.720;2024-03-02T12:47:45;70.67;;;38.93;;
41514;SDS011;27247;48.020;16.720;2024-03-02T12:51:55;70.30;;;37.80;;
41514;SDS011;27247;48.020;16.720;2024-03-02T12:56:08;66.90;;;37.10;;
41514;SDS011;27247;48.020;16.720;2024-03-02T13:00:19;70.57;;;38.78;;
41514;SDS011;27247;48.020;16.720;2024-03-02T13:04:30;70.78;;;38.92;;
41514;SDS011;27247;48.020;16.720;2024-03-02T13:08:41;72.50;;;39.22;;
41514;SDS011;27247;48.020;16.720;2024-03-02T13:12:51;76.03;;;39.65;;
41514;SDS011;27247;48.020;16.720;2024-03-02T13:17:02;75.17;;;41.03;;
41514;SDS011;27247;48.020;16.720;2024-03-02T13:21:15;75.43;;;41.33;;
41514;SDS011;27247;48.020;16.720;2024-03-02T13:25:25;76.75;;;41.00;;
41514;SDS011;27247;48.020;16.720;2024-03-02T13:29:37;90.80;;;42.13;;
41514;SDS011;27247;48.020;16.720;2024-03-02T13:33:47;74.30;;;41.22;;
41514;SDS011;27247;48.020;16.720;2024-03-02T13:37:58;78.05;;;41.00;;
41514;SDS011;27247;48.020;16.720;2024-03-02T13:42:12;75.28;;;39.60;;
41514;SDS011;27247;48.020;16.720;2024-03-02T13:46:24;77.43;;;41.10;;
41514;SDS011;27247;48.020;16.720;2024-03-02T13:50:34;77.97;;;40.70;;
41514;SDS011;27247;48.020;16.720;2024-03-02T13:54:45;79.88;;;43.85;;
41514;SDS011;27247;48.020;16.720;2024-03-02T13:58:56;74.72;;;42.63;;
41514;SDS011;27247;48.020;16.720;2024-03-02T14:03:07;80.07;;;42.50;;
41514;SDS011;27247;48.020;16.720;2024-03-02T14:07:17;78.93;;;41.87;;
41514;SDS011;27247;48.020;16.720;2024-03-02T14:11:27;78.57;;;40.60;;
41514;SDS011;27247;48.020;16.720;2024-03-02T14:15:38;81.32;;;42.22;;
41514;SDS011;27247;48.020;16.720;2024-03-02T14:19:49;74.85;;;41.40;;
41514;SDS011;27247;48.020;16.720;2024-03-02T14:23:59;77.03;;;42.50;;
41514;SDS011;27247;48.020;16.720;2024-03-02T14:28:09;77.57;;;43.50;;
41514;SDS011;27247;48.020;16.720;2024-03-02T14:32:20;80.15;;;41.03;;
41514;SDS011;27247;48.020;16.720;2024-03-02T14:36:30;72.75;;;40.95;;
41514;SDS011;27247;48.020;16.720;2024-03-02T14:40:41;77.07;;;40.22;;
41514;SDS011;27247;48.020;16.720;2024-03-02T14:44:51;75.72;;;41.10;;
41514;SDS011;27247;48.020;16.720;2024-03-02T14:49:02;80.87;;;41.07;;
41514;SDS011;27247;48.020;16.720;2024-03-02T14:53:12;74.65;;;41.22;;
41514;SDS011;27247;48.020;16.720;2024-03-02T14:57:22;83.30;;;42.63;;
41514;SDS011;27247;48.020;16.720;2024-03-02T15:01:33;81.50;;;40.80;;
41514;SDS011;27247;48.020;16.720;2024-03-02T15:05:43;78.93;;;40.70;;
41514;SDS011;27247;48.020;16.720;2024-03-02T15:09:55;81.38;;;42.30;;
41514;SDS011;27247;48.020;16.720;2024-03-02T15:14:05;70.63;;;37.03;;
41514;SDS011;27247;48.020;16.720;2024-03-02T15:18:15;75.57;;;38.45;;
41514;SDS011;27247;48.020;16.720;2024-03-02T15:22:25;70.10;;;37.87;;
41514;SDS011;27247;48.020;16.720;2024-03-02T15:26:36;73.90;;;37.33;;
41514;SDS011;27247;48.020;16.720;2024-03-02T15:30:46;67.25;;;37.05;;
41514;SDS011;27247;48.020;16.720;2024-03-02T15:34:57;65.87;;;35.90;;
41514;SDS011;27247;48.020;16.720;2024-03-02T15:39:07;63.60;;;35.60;;
41514;SDS011;27247;48.020;16.720;2024-03-02T15:43:18;64.00;;;34.00;;
41514;SDS011;27247;48.020;16.720;2024-03-02T15:47:29;62.10;;;34.50;;
41514;SDS011;27247;48.020;16.720;2024-03-02T15:51:39;66.97;;;35.55;;
41514;SDS011;27247;48.020;16.720;2024-03-02T15:55:53;62.63;;;33.88;;
41514;SDS011;27247;48.020;16.720;2024-03-02T16:00:04;65.43;;;32.92;;
41514;SDS011;27247;48.020;16.720;2024-03-02T16:04:15;60.20;;;32.88;;
41514;SDS011;27247;48.020;16.720;2024-03-02T16:08:26;61.78;;;33.92;;
41514;SDS011;27247;48.020;16.720;2024-03-02T16:12:36;65.80;;;35.23;;
41514;SDS011;27247;48.020;16.720;2024-03-02T16:16:47;63.28;;;35.95;;
41514;SDS011;27247;48.020;16.720;2024-03-02T16:20:57;70.30;;;35.10;;
41514;SDS011;27247;48.020;16.720;2024-03-02T16:25:07;68.67;;;35.33;;
41514;SDS011;27247;48.020;16.720;2024-03-02T16:29:18;65.20;;;35.67;;
41514;SDS011;27247;48.020;16.720;2024-03-02T16:33:28;72.03;;;34.57;;
41514;SDS011;27247;48.020;16.720;2024-03-02T16:37:38;63.80;;;34.63;;
41514;SDS011;27247;48.020;16.720;2024-03-02T16:41:49;66.73;;;35.97;;
41514;SDS011;27247;48.020;16.720;2024-03-02T16:45:59;65.00;;;33.50;;
41514;SDS011;27247;48.020;16.720;2024-03-02T16:50:09;61.73;;;34.83;;
41514;SDS011;27247;48.020;16.720;2024-03-02T16:54:21;69.45;;;34.25;;
41514;SDS011;27247;48.020;16.720;2024-03-02T16:58:32;69.82;;;35.85;;
41514;SDS011;27247;48.020;16.720;2024-03-02T17:02:42;68.60;;;34.43;;
41514;SDS011;27247;48.020;16.720;2024-03-02T17:06:52;70.50;;;35.38;;
41514;SDS011;27247;48.020;16.720;2024-03-02T17:11:03;64.90;;;33.90;;
41514;SDS011;27247;48.020;16.720;2024-03-02T17:15:13;63.15;;;34.33;;
41514;SDS011;27247;48.020;16.720;2024-03-02T17:19:24;65.60;;;33.83;;
41514;SDS011;27247;48.020;16.720;2024-03-02T17:23:34;63.20;;;32.77;;
41514;SDS011;27247;48.020;16.720;2024-03-02T17:27:44;59.53;;;30.80;;
41514;SDS011;27247;48.020;16.720;2024-03-02T17:31:55;60.97;;;30.83;;
41514;SDS011;27247;48.020;16.720;2024-03-02T17:36:05;56.10;;;30.83;;
41514;SDS011;27247;48.020;16.720;2024-03-02T17:40:16;56.08;;;30.13;;
41514;SDS011;27247;48.020;16.720;2024-03-02T17:44:26;54.07;;;30.03;;
41514;SDS011;27247;48.020;16.720;2024-03-02T17:48:37;55.67;;;29.40;;
41514;SDS011;27247;48.020;16.720;2024-03-02T17:52:47;53.97;;;27.80;;
41514;SDS011;27247;48.020;16.720;2024-03-02T17:56:57;56.27;;;30.00;;
41514;SDS011;27247;48.020;16.720;2024-03-02T18:01:08;49.83;;;27.40;;
41514;SDS011;27247;48.020;16.720;2024-03-02T18:05:21;49.53;;;26.95;;
41514;SDS011;27247;48.020;16.720;2024-03-02T18:09:31;49.50;;;27.93;;
41514;SDS011;27247;48.020;16.720;2024-03-02T18:13:41;46.63;;;26.43;;
41514;SDS011;27247;48.020;16.720;2024-03-02T18:17:52;51.73;;;26.27;;
41514;SDS011;27247;48.020;16.720;2024-03-02T18:22:02;50.17;;;26.27;;
41514;SDS011;27247;48.020;16.720;2024-03-02T18:26:12;53.80;;;27.50;;
41514;SDS011;27247;48.020;16.720;2024-03-02T18:30:23;50.50;;;26.47;;
41514;SDS011;27247;48.020;16.720;2024-03-02T18:34:33;49.83;;;26.60;;
41514;SDS011;27247;48.020;16.720;2024-03-02T18:38:43;49.77;;;25.83;;
41514;SDS011;27247;48.020;16.720;2024-03-02T18:42:54;52.37;;;27.87;;
41514;SDS011;27247;48.020;16.720;2024-03-02T18:47:04;50.30;;;27.50;;
41514;SDS011;27247;48.020;16.720;2024-03-02T18:51:15;49.77;;;27.53;;
41514;SDS011;27247;48.020;16.720;2024-03-02T18:55:25;56.00;;;30.13;;
41514;SDS011;27247;48.020;16.720;2024-03-02T18:59:36;51.50;;;28.30;;
41514;SDS011;27247;48.020;16.720;2024-03-02T19:03:46;51.28;;;29.67;;
41514;SDS011;27247;48.020;16.720;2024-03-02T19:07:57;50.70;;;28.17;;
41514;SDS011;27247;48.020;16.720;2024-03-02T19:12:07;55.45;;;30.00;;
41514;SDS011;27247;48.020;16.720;2024-03-02T19:16:17;55.78;;;28.90;;
41514;SDS011;27247;48.020;16.720;2024-03-02T19:20:28;58.33;;;30.20;;
41514;SDS011;27247;48.020;16.720;2024-03-02T19:24:38;59.35;;;30.35;;
41514;SDS011;27247;48.020;16.720;2024-03-02T19:28:48;61.10;;;30.83;;
41514;SDS011;27247;48.020;16.720;2024-03-02T19:32:59;60.60;;;31.43;;
41514;SDS011;27247;48.020;16.720;2024-03-02T19:37:09;60.97;;;32.07;;
41514;SDS011;27247;48.020;16.720;2024-03-02T19:41:19;67.50;;;33.17;;
41514;SDS011;27247;48.020;16.720;2024-03-02T19:45:30;65.25;;;33.17;;
41514;SDS011;27247;48.020;16.720;2024-03-02T19:49:40;60.60;;;32.35;;
41514;SDS011;27247;48.020;16.720;2024-03-02T19:53:50;70.17;;;34.33;;
41514;SDS011;27247;48.020;16.720;2024-03-02T19:58:01;67.40;;;31.08;;
41514;SDS011;27247;48.020;16.720;2024-03-02T20:02:11;67.17;;;32.90;;
41514;SDS011;27247;48.020;16.720;2024-03-02T20:06:21;68.32;;;32.95;;
41514;SDS011;27247;48.020;16.720;2024-03-02T20:10:32;78.82;;;35.05;;
41514;SDS011;27247;48.020;16.720;2024-03-02T20:14:44;71.67;;;34.63;;
41514;SDS011;27247;48.020;16.720;2024-03-02T20:18:54;65.95;;;31.90;;
41514;SDS011;27247;48.020;16.720;2024-03-02T20:23:04;66.53;;;32.13;;
41514;SDS011;27247;48.020;16.720;2024-03-02T20:27:15;68.82;;;33.42;;
41514;SDS011;27247;48.020;16.720;2024-03-02T20:31:27;87.72;;;38.53;;
41514;SDS011;27247;48.020;16.720;2024-03-02T20:35:39;93.80;;;39.92;;
41514;SDS011;27247;48.020;16.720;2024-03-02T20:39:49;85.70;;;39.38;;
41514;SDS011;27247;48.020;16.720;2024-03-02T20:44:02;94.65;;;41.15;;
41514;SDS011;27247;48.020;16.720;2024-03-02T20:48:14;94.88;;;38.80;;
41514;SDS011;27247;48.020;16.720;2024-03-02T20:52:25;97.22;;;39.80;;
41514;SDS011;27247;48.020;16.720;2024-03-02T20:56:35;98.88;;;42.35;;
41514;SDS011;27247;48.020;16.720;2024-03-02T21:00:45;106.80;;;43.20;;
41514;SDS011;27247;48.020;16.720;2024-03-02T21:04:56;111.18;;;45.10;;
41514;SDS011;27247;48.020;16.720;2024-03-02T21:09:06;112.80;;;46.93;;
41514;SDS011;27247;48.020;16.720;2024-03-02T21:13:17;113.88;;;47.92;;
41514;SDS011;27247;48.020;16.720;2024-03-02T21:17:27;113.27;;;46.87;;
41514;SDS011;27247;48.020;16.720;2024-03-02T21:21:39;112.82;;;43.83;;
41514;SDS011;27247;48.020;16.720;2024-03-02T21:25:51;109.85;;;44.25;;
41514;SDS011;27247;48.020;16.720;2024-03-02T21:30:01;106.60;;;43.53;;
41514;SDS011;27247;48.020;16.720;2024-03-02T21:34:12;109.80;;;45.42;;
41514;SDS011;27247;48.020;16.720;2024-03-02T21:38:22;108.60;;;42.97;;
41514;SDS011;27247;48.020;16.720;2024-03-02T21:42:33;105.95;;;44.05;;
41514;SDS011;27247;48.020;16.720;2024-03-02T21:46:47;105.80;;;43.43;;
41514;SDS011;27247;48.020;16.720;2024-03-02T21:50:57;107.85;;;43.75;;
41514;SDS011;27247;48.020;16.720;2024-03-02T21:55:08;103.43;;;42.65;;
41514;SDS011;27247;48.020;16.720;2024-03-02T21:59:19;112.15;;;45.13;;
41514;SDS011;27247;48.020;16.720;2024-03-02T22:03:29;104.83;;;44.37;;
41514;SDS011;27247;48.020;16.720;2024-03-02T22:07:39;119.80;;;47.07;;
41514;SDS011;27247;48.020;16.720;2024-03-02T22:11:50;112.22;;;46.28;;
41514;SDS011;27247;48.020;16.720;2024-03-02T22:16:00;110.88;;;47.20;;
41514;SDS011;27247;48.020;16.720;2024-03-02T22:20:10;106.13;;;43.93;;
41514;SDS011;27247;48.020;16.720;2024-03-02T22:24:21;110.05;;;44.45;;
41514;SDS011;27247;48.020;16.720;2024-03-02T22:28:36;114.30;;;46.95;;
41514;SDS011;27247;48.020;16.720;2024-03-02T22:32:46;112.03;;;45.23;;
41514;SDS011;27247;48.020;16.720;2024-03-02T22:36:56;115.13;;;47.38;;
41514;SDS011;27247;48.020;16.720;2024-03-02T22:41:07;109.95;;;45.13;;
41514;SDS011;27247;48.020;16.720;2024-03-02T22:45:17;115.63;;;47.27;;
41514;SDS011;27247;48.020;16.720;2024-03-02T22:49:28;110.70;;;44.70;;
41514;SDS011;27247;48.020;16.720;2024-03-02T22:53:38;108.60;;;45.67;;
41514;SDS011;27247;48.020;16.720;2024-03-02T22:57:48;113.80;;;46.50;;
41514;SDS011;27247;48.020;16.720;2024-03-02T23:01:59;118.68;;;48.05;;
41514;SDS011;27247;48.020;16.720;2024-03-02T23:06:09;115.63;;;45.27;;
41514;SDS011;27247;48.020;16.720;2024-03-02T23:10:19;128.90;;;50.80;;
41514;SDS011;27247;48.020;16.720;2024-03-02T23:14:30;113.50;;;46.03;;
41514;SDS011;27247;48.020;16.720;2024-03-02T23:18:40;115.20;;;46.67;;
41514;SDS011;27247;48.020;16.720;2024-03-02T23:22:50;119.88;;;48.25;;
41514;SDS011;27247;48.020;16.720;2024-03-02T23:27:01;122.55;;;50.80;;
41514;SDS011;27247;48.020;16.720;2024-03-02T23:31:11;115.70;;;46.67;;
41514;SDS011;27247;48.020;16.720;2024-03-02T23:35:25;119.07;;;49.35;;
41514;SDS011;27247;48.020;16.720;2024-03-02T23:39:35;123.38;;;48.35;;
41514;SDS011;27247;48.020;16.720;2024-03-02T23:44:18;125.88;;;49.97;;
41514;SDS011;27247;48.020;16.720;2024-03-02T23:48:28;117.30;;;47.47;;
41514;SDS011;27247;48.020;16.720;2024-03-02T23:52:38;119.00;;;48.57;;
41514;SDS011;27247;48.020;16.720;2024-03-02T23:56:49;123.40;;;49.27;;
